• Join FlightAware (Why Join?)
  • Login
  • US Flag 
02:50AM EDT


 

Airport Tracker/Info


-or-


 

Live Flight TrackerFlight Track Log ✈ N777NC ✈ 07-Jul-2013 ✈ KHSV - KATL

Flight Track Log - Related Links

Times and Time Zones

All times are in EDT time to prevent confusion due to time zone crossing. See the N777NC flight status page for this flight to view local times or setup timezone preferences in your user account.

Time Position Orientation Groundspeed Altitude Reporting Facility
EDT Latitude Longitude Course Direction KTS MPH feet Rate Location/Type
06:05PM 34.5631 -86.6222 81° East 273 314 4,700  Level Memphis Center
06:06PM 34.5333 -86.4358 90° East  Level FlightAware Approximate
06:07PM 34.5102 -86.3522 109° East  Level FlightAware Approximate
06:07PM 34.5781 -86.4708 83° East 319 367 8,700  Level Atlanta Center
06:08PM 34.4869 -86.2686 108° East  Level FlightAware Approximate
06:08PM 34.5800 -86.3700 89° East 305 351 10,900  Level Atlanta Center
06:09PM 34.4597 -86.1687 108° East  Level FlightAware Approximate
06:09PM 34.5653 -86.2586 99° East 300 345 12,700  Level Atlanta Center
06:10PM 34.4362 -86.0682 109° East  Level FlightAware Approximate
06:10PM 34.5442 -86.1469 103° East 318 366 13,600  Level Atlanta Center
06:11PM 34.5067 -86.0275 111° Southeast 352 405 14,800 1,500 Climbing Atlanta Center
06:12PM 34.4647 -85.9058 113° Southeast 374 430 16,600 1,500 Climbing Atlanta Center
06:13PM 34.4183 -85.7964 117° Southeast 387 445 17,900 1,140 Climbing Atlanta Center
06:14PM 34.3678 -85.6719 116° Southeast 400 460 18,900 540 Climbing Atlanta Center
06:15PM 34.3133 -85.5378 116° Southeast 424 488 19,000  Climbing Atlanta Center
06:16PM 34.2647 -85.3886 111° Southeast 434 499 19,000 -840 Level Atlanta Center
06:17PM 34.2222 -85.2597 112° Southeast 434 499 17,400 -2,100 Descending Atlanta Center
06:18PM 34.1714 -85.1336 116° Southeast 420 483 14,900 -1,620 Descending Atlanta Center
06:19PM 34.1075 -85.0272 126° Southeast 400 460 14,200 -600 Descending Atlanta Center
06:20PM 34.0269 -84.9361 137° Southeast 387 445 13,800 -660 Descending Atlanta Center
06:21PM 33.9522 -84.8503 136° Southeast 382 440 12,900 -900 Descending Atlanta Center
06:22PM 33.8819 -84.7569 132° Southeast 377 434 12,100 -480 Descending Atlanta Center
06:23PM 33.8136 -84.6614 131° Southeast 377 434 12,000 -60 Descending Atlanta Center
06:24PM 33.7533 -84.5783 131° Southeast 354 407 12,000 -720 Level Atlanta Center
06:25PM 33.7411 -84.4883 99° East 294 338 10,600 -1,620 Descending Atlanta Center
06:26PM 33.7417 -84.4011 90° East 265 305 8,800 -1,920 Descending Atlanta Center
06:27PM 33.7397 -84.3161 92° East 259 298 6,800 -1,980 Descending Atlanta Center
06:28PM 33.7000 -84.2500 126° Southeast 229 264 4,500 -1,800 Descending Atlanta TRACON
06:29PM 33.6500 -84.2833 209° Southwest 209 241 2,900 -1,260 Descending Atlanta TRACON
06:30PM 33.6500 -84.3500 270° West 171 197 1,800 -960 Descending Atlanta TRACON